createdAt,value
2018-10-07T00:01:44.325Z,4.27
2018-10-07T00:04:13.975Z,4.20
2018-10-07T00:06:43.604Z,3.70
2018-10-07T00:09:13.268Z,4.43
2018-10-07T00:11:43.353Z,3.90
2018-10-07T00:14:13.028Z,4.27
2018-10-07T00:16:42.660Z,4.63
2018-10-07T00:19:12.312Z,4.30
2018-10-07T00:21:41.936Z,4.40
2018-10-07T00:24:11.601Z,4.17
2018-10-07T00:26:41.616Z,4.43
2018-10-07T00:29:11.256Z,4.43
2018-10-07T00:31:46.036Z,4.50
2018-10-07T00:34:15.676Z,4.70
2018-10-07T00:36:45.352Z,6.20
2018-10-07T00:39:15.008Z,7.00
2018-10-07T00:41:44.640Z,8.90
2018-10-07T00:44:14.512Z,10.07
2018-10-07T00:46:44.171Z,10.10
2018-10-07T00:49:13.856Z,12.50
2018-10-07T00:51:43.578Z,11.53
2018-10-07T00:54:13.256Z,12.83
2018-10-07T00:56:42.932Z,12.10
2018-10-07T00:59:12.616Z,14.07
2018-10-07T01:01:42.296Z,14.57
2018-10-07T01:04:11.960Z,14.87
2018-10-07T01:06:41.611Z,17.10
2018-10-07T01:09:12.724Z,14.73
2018-10-07T01:11:42.362Z,17.17
2018-10-07T01:14:12.352Z,17.70
2018-10-07T01:16:42.008Z,16.37
2018-10-07T01:19:11.684Z,18.23
2018-10-07T01:21:41.320Z,17.43
2018-10-07T01:24:10.991Z,19.63
2018-10-07T01:26:40.642Z,20.83
2018-10-07T01:29:10.327Z,22.77
2018-10-07T01:31:39.969Z,21.90
2018-10-07T01:34:09.636Z,22.70
2018-10-07T01:36:39.272Z,27.37
2018-10-07T01:39:10.715Z,24.13
2018-10-07T01:41:40.373Z,26.47
2018-10-07T01:44:10.028Z,30.60
2018-10-07T01:46:39.682Z,32.97
2018-10-07T01:49:09.342Z,29.67
2018-10-07T01:51:38.968Z,36.67
2018-10-07T01:54:08.659Z,33.90
2018-10-07T01:56:38.288Z,28.90
2018-10-07T01:59:07.976Z,36.83
2018-10-07T02:01:37.635Z,31.67
2018-10-07T02:04:07.335Z,31.30
2018-10-07T02:06:36.959Z,30.50
2018-10-07T02:09:08.704Z,31.30
2018-10-07T02:11:38.348Z,32.73
2018-10-07T02:14:08.017Z,34.10
2018-10-07T02:16:37.640Z,34.97
2018-10-07T02:19:07.296Z,38.90
2018-10-07T02:21:36.915Z,38.60
2018-10-07T02:24:06.632Z,38.20
2018-10-07T02:26:36.268Z,40.40
2018-10-07T02:29:06.004Z,42.80
2018-10-07T02:31:35.645Z,42.53
2018-10-07T02:34:05.320Z,46.47
2018-10-07T02:36:34.957Z,49.27
2018-10-07T02:39:06.149Z,45.93
2018-10-07T02:41:35.792Z,48.77
2018-10-07T02:44:05.460Z,52.00
2018-10-07T02:46:35.095Z,50.27
2018-10-07T02:49:04.754Z,52.40
2018-10-07T02:51:34.716Z,53.07
2018-10-07T02:54:04.505Z,54.03
2018-10-07T02:56:34.210Z,51.43
2018-10-07T02:59:04.474Z,53.57
2018-10-07T03:01:34.136Z,49.60
2018-10-07T03:04:03.848Z,52.73
2018-10-07T03:06:33.532Z,46.77
2018-10-07T03:09:03.289Z,48.63
2018-10-07T03:11:32.940Z,46.10
2018-10-07T03:14:02.632Z,51.40
2018-10-07T03:16:32.261Z,46.80
2018-10-07T03:19:01.923Z,55.20
2018-10-07T03:21:32.120Z,49.50
2018-10-07T03:24:01.774Z,48.00
2018-10-07T03:26:31.496Z,52.17
2018-10-07T03:29:01.176Z,50.60
2018-10-07T03:31:30.840Z,51.77
2018-10-07T03:34:00.492Z,51.03
2018-10-07T03:36:30.136Z,45.93
2018-10-07T03:38:59.785Z,49.27
2018-10-07T03:41:29.455Z,47.17
2018-10-07T03:43:59.120Z,49.40
2018-10-07T03:46:28.767Z,43.37
2018-10-07T03:48:58.432Z,42.50
2018-10-07T03:51:28.080Z,42.30
2018-10-07T03:53:57.720Z,39.43
2018-10-07T03:56:27.352Z,38.33
2018-10-07T03:58:56.996Z,38.70
2018-10-07T04:01:26.712Z,37.63
2018-10-07T04:03:56.376Z,37.77
2018-10-07T04:06:26.028Z,40.67
2018-10-07T04:08:55.688Z,39.80
2018-10-07T04:11:25.318Z,36.87
2018-10-07T04:13:54.965Z,38.40
2018-10-07T04:16:24.608Z,38.50
2018-10-07T04:18:54.280Z,38.27
2018-10-07T04:21:24.181Z,37.50
2018-10-07T04:23:53.883Z,35.00
2018-10-07T04:26:23.525Z,33.30
2018-10-07T04:28:53.172Z,32.30
2018-10-07T04:31:22.966Z,29.73
2018-10-07T04:33:52.660Z,30.47
2018-10-07T04:36:22.298Z,26.37
2018-10-07T04:38:51.948Z,26.03
2018-10-07T04:41:21.584Z,24.77
2018-10-07T04:43:51.232Z,24.33
2018-10-07T04:46:20.872Z,24.60
2018-10-07T04:48:50.565Z,23.73
2018-10-07T04:51:20.210Z,20.77
2018-10-07T04:53:49.874Z,20.63
2018-10-07T04:56:19.511Z,18.43
2018-10-07T04:58:49.170Z,17.43
2018-10-07T05:01:18.892Z,17.37
2018-10-07T05:03:48.558Z,16.00
2018-10-07T05:06:18.612Z,16.57
2018-10-07T05:08:48.517Z,16.10
2018-10-07T05:11:18.365Z,16.03
2018-10-07T05:13:50.478Z,15.33
2018-10-07T05:16:29.501Z,14.50
2018-10-07T05:18:59.821Z,13.30
2018-10-07T05:21:29.572Z,14.50
2018-10-07T05:23:59.892Z,13.13
2018-10-07T05:26:29.989Z,13.53
2018-10-07T05:28:59.684Z,12.67
2018-10-07T05:31:29.332Z,10.67
2018-10-07T05:33:58.998Z,10.70
2018-10-07T05:36:28.656Z,11.63
2018-10-07T05:38:58.329Z,11.13
2018-10-07T05:41:28.008Z,11.17
2018-10-07T05:43:57.667Z,11.33
2018-10-07T05:46:27.314Z,12.00
2018-10-07T05:48:56.985Z,12.80
2018-10-07T05:51:26.615Z,12.70
2018-10-07T05:53:56.304Z,12.27
2018-10-07T05:56:25.957Z,12.80
2018-10-07T05:58:56.767Z,12.17
2018-10-07T06:01:30.451Z,12.70
2018-10-07T06:04:19.965Z,12.60
2018-10-07T06:06:49.799Z,12.80
2018-10-07T06:09:29.835Z,12.23
2018-10-07T06:11:59.524Z,12.33
2018-10-07T06:14:40.294Z,13.77
2018-10-07T06:17:09.980Z,13.23
2018-10-07T06:19:39.648Z,13.10
2018-10-07T06:22:09.371Z,12.53
2018-10-07T06:24:39.059Z,13.67
2018-10-07T06:27:08.744Z,14.63
2018-10-07T06:29:38.434Z,13.43
2018-10-07T06:32:08.195Z,12.73
2018-10-07T06:34:37.885Z,11.10
2018-10-07T06:37:07.600Z,11.93
2018-10-07T06:39:37.324Z,11.50
2018-10-07T06:42:07.462Z,13.27
2018-10-07T06:44:37.145Z,15.20
2018-10-07T06:47:06.939Z,15.77
2018-10-07T06:49:36.610Z,15.57
2018-10-07T06:52:06.424Z,13.00
2018-10-07T06:54:36.097Z,12.47
2018-10-07T06:57:05.832Z,13.23
2018-10-07T06:59:35.535Z,12.17
2018-10-07T07:02:05.604Z,11.13
2018-10-07T07:04:35.250Z,10.30
2018-10-07T07:07:04.907Z,9.37
2018-10-07T07:09:34.536Z,9.63
2018-10-07T07:12:04.197Z,8.00
2018-10-07T07:14:33.809Z,8.27
2018-10-07T07:17:03.470Z,7.30
2018-10-07T07:19:33.108Z,6.33
2018-10-07T07:22:02.783Z,5.37
2018-10-07T07:24:32.417Z,6.07
2018-10-07T07:27:02.164Z,5.60
2018-10-07T07:29:31.812Z,5.23
2018-10-07T07:32:01.525Z,4.87
2018-10-07T07:34:31.176Z,4.30
2018-10-07T07:37:00.869Z,4.60
2018-10-07T07:39:30.507Z,4.80
2018-10-07T07:42:00.144Z,4.97
2018-10-07T07:44:29.775Z,4.90
2018-10-07T07:46:59.438Z,5.60
2018-10-07T07:49:29.068Z,5.40
2018-10-07T07:51:58.740Z,5.07
2018-10-07T07:54:28.380Z,5.33
2018-10-07T07:56:58.068Z,5.37
2018-10-07T07:59:27.709Z,4.90
2018-10-07T08:01:57.379Z,5.90
2018-10-07T08:04:27.012Z,6.57
2018-10-07T08:06:56.679Z,6.70
2018-10-07T08:09:26.336Z,7.90
2018-10-07T08:11:56.003Z,7.57
2018-10-07T08:14:25.629Z,6.83
2018-10-07T08:16:55.294Z,6.50
2018-10-07T08:19:25.230Z,5.90
2018-10-07T08:21:54.888Z,5.10
2018-10-07T08:24:24.564Z,4.70
2018-10-07T08:26:54.244Z,4.53
2018-10-07T08:29:23.885Z,3.93
2018-10-07T08:31:53.545Z,4.20
2018-10-07T08:34:23.192Z,4.77
2018-10-07T08:36:53.138Z,3.93
2018-10-07T08:39:22.885Z,4.03
2018-10-07T08:41:52.643Z,3.40
2018-10-07T08:44:22.288Z,3.63
2018-10-07T08:46:51.951Z,3.03
2018-10-07T08:49:22.203Z,3.07
2018-10-07T08:51:51.864Z,3.37
2018-10-07T08:54:21.510Z,3.40
2018-10-07T08:56:51.217Z,3.03
2018-10-07T08:59:20.863Z,2.80
2018-10-07T09:01:50.532Z,3.10
2018-10-07T09:04:20.190Z,2.60
2018-10-07T09:06:49.880Z,3.57
2018-10-07T09:09:19.512Z,2.93
2018-10-07T09:11:49.163Z,2.80
2018-10-07T09:14:18.796Z,2.70
2018-10-07T09:16:48.491Z,3.00
2018-10-07T09:19:18.140Z,2.67
2018-10-07T09:21:47.796Z,2.50
2018-10-07T09:24:17.428Z,2.33
2018-10-07T09:26:47.100Z,2.13
2018-10-07T09:29:17.174Z,2.30
2018-10-07T09:31:46.887Z,2.00
2018-10-07T09:34:16.529Z,2.30
2018-10-07T09:36:46.266Z,2.53
2018-10-07T09:39:15.917Z,2.40
2018-10-07T09:41:45.531Z,2.00
2018-10-07T09:44:15.164Z,2.40
2018-10-07T09:46:44.868Z,2.30
2018-10-07T09:49:14.637Z,2.17
2018-10-07T09:51:44.305Z,2.17
2018-10-07T09:54:13.957Z,2.70
2018-10-07T09:56:43.624Z,2.30
2018-10-07T09:59:13.323Z,2.40
2018-10-07T10:01:43.004Z,2.50
2018-10-07T10:04:12.732Z,2.57
2018-10-07T10:06:42.772Z,2.40
2018-10-07T10:09:12.608Z,3.07
2018-10-07T10:11:42.307Z,2.63
2018-10-07T10:14:12.003Z,2.50
2018-10-07T10:16:52.735Z,2.37
2018-10-07T10:19:28.197Z,2.23
2018-10-07T10:22:15.432Z,2.27
2018-10-07T10:25:02.708Z,2.23
2018-10-07T10:27:43.324Z,2.13
2018-10-07T10:30:24.173Z,2.30
2018-10-07T10:33:17.844Z,2.13
2018-10-07T10:35:56.713Z,2.27
2018-10-07T10:39:09.239Z,2.60
2018-10-07T10:41:45.407Z,2.30
2018-10-07T10:44:25.472Z,2.10
2018-10-07T10:47:03.688Z,1.93
2018-10-07T10:49:41.972Z,1.70
2018-10-07T10:52:29.968Z,1.83
2018-10-07T10:57:12.240Z,1.63
2018-10-07T10:59:50.824Z,1.50
2018-10-07T11:02:32.889Z,1.67
2018-10-07T11:05:30.196Z,1.50
2018-10-07T11:08:54.975Z,1.20
2018-10-07T11:11:39.720Z,1.03
2018-10-07T11:14:39.772Z,1.20
2018-10-07T11:17:14.112Z,1.33
2018-10-07T11:19:53.217Z,1.23
2018-10-07T11:22:44.204Z,1.20
2018-10-07T11:25:26.281Z,1.03
2018-10-07T11:28:10.518Z,1.10
2018-10-07T11:31:25.921Z,1.00
2018-10-07T11:34:06.833Z,0.87
2018-10-07T11:36:49.347Z,0.80
2018-10-07T11:40:34.613Z,0.80
2018-10-07T11:44:11.278Z,0.90
2018-10-07T11:46:53.480Z,0.90
2018-10-07T11:49:29.952Z,0.70
2018-10-07T11:52:06.763Z,1.10
2018-10-07T11:55:00.229Z,0.77
2018-10-07T11:57:30.000Z,0.80
2018-10-07T12:00:00.264Z,0.60
2018-10-07T12:02:29.952Z,0.70
2018-10-07T12:04:59.639Z,0.80
2018-10-07T12:07:31.149Z,0.67
2018-10-07T12:10:00.793Z,0.70
2018-10-07T12:12:30.488Z,0.60
2018-10-07T12:15:00.150Z,1.00
2018-10-07T12:17:29.812Z,0.73
2018-10-07T12:19:59.440Z,0.73
2018-10-07T12:22:29.125Z,0.40
2018-10-07T12:24:58.752Z,0.47
2018-10-07T12:27:28.423Z,0.60
2018-10-07T12:29:58.081Z,0.40
2018-10-07T12:32:27.732Z,0.47
2018-10-07T12:34:57.389Z,0.60
2018-10-07T12:37:27.064Z,0.50
2018-10-07T12:39:56.697Z,0.47
2018-10-07T12:42:26.383Z,0.40
2018-10-07T12:44:55.992Z,0.60
2018-10-07T12:47:25.659Z,0.50
2018-10-07T12:49:55.302Z,0.53
2018-10-07T12:52:24.980Z,0.57
2018-10-07T12:54:54.623Z,0.53
2018-10-07T12:57:24.292Z,0.60
2018-10-07T12:59:53.956Z,0.60
2018-10-07T13:02:23.592Z,0.53
2018-10-07T13:04:53.300Z,0.50
2018-10-07T13:07:23.147Z,0.30
2018-10-07T13:09:52.811Z,0.60
2018-10-07T13:12:22.448Z,0.50
2018-10-07T13:14:52.109Z,0.40
2018-10-07T13:17:21.752Z,0.40
2018-10-07T13:19:51.420Z,0.43
2018-10-07T13:22:21.061Z,0.40
2018-10-07T13:24:50.739Z,0.43
2018-10-07T13:27:20.384Z,0.63
2018-10-07T13:29:50.050Z,0.40
2018-10-07T13:32:19.716Z,0.33
2018-10-07T13:34:49.404Z,0.40
2018-10-07T13:37:19.075Z,0.70
2018-10-07T13:39:48.798Z,0.40
2018-10-07T13:42:18.468Z,0.50
2018-10-07T13:44:48.168Z,0.70
2018-10-07T13:47:17.824Z,0.40
2018-10-07T13:49:47.505Z,0.60
2018-10-07T13:52:17.160Z,0.43
2018-10-07T13:54:46.835Z,0.40
2018-10-07T13:57:16.583Z,0.70
2018-10-07T13:59:46.249Z,0.53
2018-10-07T14:02:15.880Z,0.30
2018-10-07T14:04:45.608Z,0.60
2018-10-07T14:07:15.259Z,0.80
2018-10-07T14:09:44.949Z,0.90
2018-10-07T14:12:14.597Z,0.40
2018-10-07T14:14:44.272Z,0.83
2018-10-07T14:17:13.919Z,0.50
2018-10-07T14:19:43.676Z,0.60
2018-10-07T14:22:13.355Z,0.50
2018-10-07T14:24:43.062Z,0.70
2018-10-07T14:27:12.712Z,0.70
2018-10-07T14:29:42.417Z,0.60
2018-10-07T14:32:12.053Z,0.60
2018-10-07T14:34:41.692Z,0.70
2018-10-07T14:37:11.344Z,0.57
2018-10-07T14:39:40.976Z,0.77
2018-10-07T14:42:10.636Z,0.77
2018-10-07T14:44:40.312Z,1.20
2018-10-07T14:47:09.964Z,1.50
2018-10-07T14:49:39.605Z,0.80
2018-10-07T14:54:31.877Z,2.40
2018-10-07T14:57:01.570Z,1.00
2018-10-07T14:59:31.301Z,0.73
2018-10-07T15:02:00.952Z,0.60
2018-10-07T15:04:30.591Z,0.50
2018-10-07T15:07:00.305Z,0.83
2018-10-07T15:09:29.964Z,0.60
2018-10-07T15:11:59.601Z,0.40
2018-10-07T15:14:29.281Z,0.40
2018-10-07T15:16:58.903Z,0.90
2018-10-07T15:19:28.531Z,0.70
2018-10-07T15:21:58.213Z,0.90
2018-10-07T15:24:27.843Z,0.50
2018-10-07T15:26:57.477Z,0.50
2018-10-07T15:29:27.239Z,0.43
2018-10-07T15:31:56.850Z,0.70
2018-10-07T15:34:26.482Z,0.47
2018-10-07T15:36:56.177Z,0.60
2018-10-07T15:39:25.830Z,0.60
2018-10-07T15:41:55.475Z,0.70
2018-10-07T15:44:25.169Z,0.60
2018-10-07T15:46:54.804Z,2.13
2018-10-07T15:49:24.452Z,0.90
2018-10-07T15:51:54.140Z,3.47
2018-10-07T15:54:23.864Z,3.10
2018-10-07T15:56:53.507Z,1.40
2018-10-07T15:59:23.229Z,0.80
2018-10-07T16:01:52.980Z,1.50
2018-10-07T16:04:22.785Z,2.10
2018-10-07T16:06:52.508Z,1.70
2018-10-07T16:09:22.159Z,1.67
2018-10-07T16:11:51.804Z,1.17
2018-10-07T16:14:21.489Z,1.40
2018-10-07T16:16:51.126Z,2.77
2018-10-07T16:19:20.772Z,1.23
2018-10-07T16:21:50.494Z,1.13
2018-10-07T16:24:20.340Z,0.80
2018-10-07T16:26:50.079Z,0.57
2018-10-07T16:29:19.774Z,0.67
2018-10-07T16:31:49.408Z,0.70
2018-10-07T16:34:19.136Z,0.53
2018-10-07T16:36:48.756Z,0.60
2018-10-07T16:39:18.536Z,1.00
2018-10-07T16:41:48.148Z,1.20
2018-10-07T16:44:17.800Z,0.90
2018-10-07T16:46:47.441Z,0.80
2018-10-07T16:49:17.113Z,0.90
2018-10-07T16:51:46.755Z,0.60
2018-10-07T16:54:16.396Z,0.60
2018-10-07T16:56:46.085Z,0.70
2018-10-07T16:59:15.743Z,0.80
2018-10-07T17:01:45.390Z,0.90
2018-10-07T17:04:15.072Z,1.10
2018-10-07T17:06:44.720Z,0.70
2018-10-07T17:09:14.349Z,1.00
2018-10-07T17:11:44.030Z,0.90
2018-10-07T17:14:13.661Z,0.63
2018-10-07T17:16:43.308Z,0.67
2018-10-07T17:19:12.972Z,1.10
2018-10-07T17:21:42.704Z,0.80
2018-10-07T17:24:12.459Z,0.80
2018-10-07T17:26:42.084Z,1.00
2018-10-07T17:29:11.708Z,1.00
2018-10-07T17:31:41.384Z,0.83
2018-10-07T17:34:11.016Z,0.90
2018-10-07T17:36:40.660Z,1.10
2018-10-07T17:39:11.434Z,0.90
2018-10-07T17:41:41.496Z,1.67
2018-10-07T17:44:11.164Z,2.17
2018-10-07T17:46:40.809Z,5.40
2018-10-07T17:49:10.488Z,7.03
2018-10-07T17:51:40.385Z,2.93
2018-10-07T17:54:10.008Z,1.93
2018-10-07T17:56:39.989Z,0.97
2018-10-07T17:59:09.666Z,1.40
2018-10-07T18:01:39.322Z,1.27
2018-10-07T18:04:08.988Z,1.20
2018-10-07T18:06:38.660Z,1.40
2018-10-07T18:09:09.273Z,1.33
2018-10-07T18:11:38.854Z,1.63
2018-10-07T18:14:08.507Z,1.47
2018-10-07T18:16:38.139Z,1.20
2018-10-07T18:19:07.856Z,1.57
2018-10-07T18:21:37.497Z,1.97
2018-10-07T18:24:07.204Z,2.00
2018-10-07T18:26:36.885Z,2.63
2018-10-07T18:29:06.589Z,3.13
2018-10-07T18:31:36.216Z,2.40
2018-10-07T18:34:05.891Z,2.40
2018-10-07T18:36:35.551Z,1.90
2018-10-07T18:39:07.896Z,2.50
2018-10-07T18:41:38.504Z,1.93
2018-10-07T18:44:08.264Z,1.80
2018-10-07T18:46:37.916Z,2.00
2018-10-07T18:49:07.611Z,1.83
2018-10-07T18:51:37.242Z,1.47
2018-10-07T18:54:06.992Z,1.57
2018-10-07T18:56:36.617Z,1.50
2018-10-07T18:59:06.367Z,1.23
2018-10-07T19:01:36.008Z,1.43
2018-10-07T19:04:05.680Z,1.40
2018-10-07T19:06:35.528Z,1.50
2018-10-07T19:09:07.828Z,1.33
2018-10-07T19:11:37.491Z,1.40
2018-10-07T19:14:07.329Z,2.00
2018-10-07T19:16:36.996Z,2.50
2018-10-07T19:19:06.680Z,2.60
2018-10-07T19:21:36.326Z,2.47
2018-10-07T19:24:05.995Z,2.37
2018-10-07T19:26:35.633Z,2.73
2018-10-07T19:29:05.304Z,2.90
2018-10-07T19:31:34.929Z,2.80
2018-10-07T19:34:04.588Z,2.70
2018-10-07T19:36:34.217Z,2.43
2018-10-07T19:39:04.685Z,2.80
2018-10-07T19:41:34.330Z,3.00
2018-10-07T19:44:04.009Z,2.30
2018-10-07T19:46:33.633Z,2.50
2018-10-07T19:49:03.329Z,3.20
2018-10-07T19:51:32.958Z,2.33
2018-10-07T19:54:02.640Z,3.60
2018-10-07T19:56:32.257Z,3.70
2018-10-07T19:59:01.942Z,4.33
2018-10-07T20:01:31.575Z,11.47
2018-10-07T20:04:01.260Z,11.40
2018-10-07T20:06:30.940Z,8.20
2018-10-07T20:09:00.591Z,5.70
2018-10-07T20:11:30.235Z,5.70
2018-10-07T20:13:59.989Z,4.93
2018-10-07T20:16:29.615Z,4.80
2018-10-07T20:18:59.288Z,3.43
2018-10-07T20:21:28.991Z,2.90
2018-10-07T20:23:58.648Z,2.73
2018-10-07T20:26:28.560Z,2.83
2018-10-07T20:28:58.220Z,4.23
2018-10-07T20:31:28.027Z,6.73
2018-10-07T20:33:57.695Z,10.50
2018-10-07T20:36:27.347Z,4.70
2018-10-07T20:38:57.008Z,3.70
2018-10-07T20:41:26.633Z,3.13
2018-10-07T20:43:56.287Z,3.83
2018-10-07T20:46:25.928Z,6.17
2018-10-07T20:48:55.589Z,5.00
2018-10-07T20:51:25.220Z,5.60
2018-10-07T20:53:54.892Z,9.70
2018-10-07T20:56:24.532Z,4.60
2018-10-07T20:58:54.183Z,3.10
2018-10-07T21:01:23.816Z,4.60
2018-10-07T21:03:53.467Z,3.10
2018-10-07T21:06:23.156Z,3.60
2018-10-07T21:08:52.828Z,7.73
2018-10-07T21:11:22.460Z,4.07
2018-10-07T21:13:52.139Z,3.17
2018-10-07T21:16:21.780Z,2.27
2018-10-07T21:18:51.432Z,2.07
2018-10-07T21:21:21.055Z,2.63
2018-10-07T21:23:50.703Z,2.87
2018-10-07T21:26:20.336Z,2.30
2018-10-07T21:28:49.984Z,2.50
2018-10-07T21:31:19.608Z,2.30
2018-10-07T21:33:49.259Z,2.40
2018-10-07T21:36:18.888Z,2.20
2018-10-07T21:38:48.557Z,2.23
2018-10-07T21:41:18.196Z,1.97
2018-10-07T21:43:47.880Z,1.97
2018-10-07T21:46:17.516Z,1.80
2018-10-07T21:48:47.194Z,1.80
2018-10-07T21:51:16.848Z,1.73
2018-10-07T21:53:46.520Z,1.80
2018-10-07T21:56:16.152Z,1.60
2018-10-07T21:58:45.804Z,1.30
2018-10-07T22:01:15.445Z,1.70
2018-10-07T22:03:45.140Z,1.07
2018-10-07T22:06:14.780Z,1.90
2018-10-07T22:08:44.512Z,1.63
2018-10-07T22:11:14.210Z,1.83
2018-10-07T22:13:43.908Z,1.93
2018-10-07T22:16:13.556Z,2.10
2018-10-07T22:18:43.212Z,1.63
2018-10-07T22:21:12.892Z,1.87
2018-10-07T22:23:42.537Z,2.10
2018-10-07T22:26:12.216Z,1.97
2018-10-07T22:28:41.909Z,1.90
2018-10-07T22:31:11.560Z,1.77
2018-10-07T22:33:41.260Z,2.07
2018-10-07T22:36:10.897Z,2.07
2018-10-07T22:38:40.542Z,1.70
2018-10-07T22:41:10.236Z,2.07
2018-10-07T22:43:39.859Z,1.70
2018-10-07T22:46:09.490Z,1.87
2018-10-07T22:48:39.180Z,1.70
2018-10-07T22:51:08.822Z,1.53
2018-10-07T22:53:38.436Z,1.70
2018-10-07T22:56:08.140Z,1.43
2018-10-07T22:58:37.760Z,1.70
2018-10-07T23:01:07.819Z,1.80
2018-10-07T23:03:37.544Z,2.07
2018-10-07T23:06:07.468Z,1.77
2018-10-07T23:08:37.204Z,1.63
2018-10-07T23:11:07.080Z,1.83
2018-10-07T23:13:36.734Z,2.10
2018-10-07T23:16:06.448Z,1.80
2018-10-07T23:18:36.087Z,1.77
2018-10-07T23:21:05.736Z,1.80
2018-10-07T23:23:35.456Z,1.70
2018-10-07T23:26:05.081Z,1.90
2018-10-07T23:28:34.730Z,2.00
2018-10-07T23:31:04.661Z,1.87
2018-10-07T23:33:34.288Z,1.90
2018-10-07T23:36:03.912Z,1.80
2018-10-07T23:38:33.621Z,1.87
2018-10-07T23:41:03.352Z,2.20
2018-10-07T23:43:32.964Z,2.00
2018-10-07T23:46:02.632Z,1.90
2018-10-07T23:48:32.233Z,2.00
2018-10-07T23:51:01.859Z,1.70
2018-10-07T23:53:31.524Z,2.10
2018-10-07T23:56:01.154Z,2.20
2018-10-07T23:58:30.780Z,1.77
